Startpagina
METAR-TAF:

METAR-TAF

Vliegvelden :

Brussels Airport. Zaventem

Brussel, België

breedte: 50-54N, lengte: 004-32E, hoogte: 55 m

Actueel weer

Dit bericht is 22 minuten geleden gemaakt, om 20:20 UTC
Wind 5 kt uit het oosten
Temperatuur 17°C
Vochtigheid 42%
Druk 1003 hPa
Zicht 10 km of meer
geen wolken onder 1500 m en geen cumulonimbus

METAR: EBBR 222020Z 10005KT CAVOK 17/04 Q1003 NOSIG

Tijdstip: 22:42 (20:42 UTC)

Verwachting

Dit bericht is 3 uur en het 32 minuten geleden gemaakt, om 17:10 UTC
Verwachting geldig van 22 om 18 UTC tot 23 om 24 UTC
Wind 7 kt uit het oosten
Zicht 10 km of meer
geen wolken onder 1500 m en geen cumulonimbus

TAF: EBBR 221710Z 2218/2324 09007KT CAVOK

Waarnemingen en weersverwachtingen van meer dan 4000 vliegvelden (METAR en TAF).

De beschikbare stations zijn de gele en rode punten op de kaart.

Ga met uw muis naar het station om de naam te zien.

Klik dan om waarnemingen en weersverwachtingen te zien.

kaart wijzigen: klik op de groene knoppen met een zwart kruis om in te zoomen, op de groene knop met een streepje om uit te zoomen of op de groene pijlen voor aangrenzende kaarten.


METAR-TAF: